Time;durP1;ratioP1;P1;durP2;ratioP2;P2;SDS_P1;SDS_P2;PMS_P1;PMS_P2;Temp;Humidity;BMP_temperature;BMP_pressure;BME280_temperature;BME280_humidity;BME280_pressure;Samples;Min_cycle;Max_cycle;Signal;HPM_P1;HPM_P2
2023/12/10 00:00:34;;;;;;;;;;;15.30;82.30;;;;;;5052073;28;19916;-76
2023/12/10 00:02:59;;;;;;;;;;;14.30;81.60;;;;;;5051857;28;20007;-76
2023/12/10 00:05:25;;;;;;;;;;;15.30;82.40;;;;;;5051956;28;19909;-78
2023/12/10 00:07:50;;;;;;;;;;;15.20;82.20;;;;;;5052135;28;19931;-76
2023/12/10 00:10:16;;;;;;;;;;;15.20;82.30;;;;;;5051829;28;19962;-76
2023/12/10 00:12:41;;;;;;;;;;;15.20;82.20;;;;;;5051879;28;19909;-76
2023/12/10 00:15:07;;;;;;;;;;;15.10;82.10;;;;;;5051656;28;19916;-76
2023/12/10 00:17:33;;;;;;;;;;;15.20;81.90;;;;;;5051796;28;19909;-77
2023/12/10 00:19:58;;;;;;;;;;;15.30;82.10;;;;;;5051772;28;19916;-77
2023/12/10 00:22:24;;;;;;;;;;;15.20;82.10;;;;;;5052177;28;19909;-71
2023/12/10 00:24:49;;;;;;;;;;;15.20;82.10;;;;;;5051502;28;19932;-71
2023/12/10 00:27:15;;;;;;;;;;;15.10;82.00;;;;;;5051642;28;19908;-71
2023/12/10 00:29:40;;;;;;;;;;;15.20;82.20;;;;;;5051602;28;19909;-71
2023/12/10 00:32:06;;;;;;;;;;;15.20;82.40;;;;;;5051553;28;19986;-71
2023/12/10 00:34:32;;;;;;;;;;;15.10;81.90;;;;;;5053284;28;19982;-77
2023/12/10 00:36:57;;;;;;;;;;;15.20;81.80;;;;;;5055294;28;19909;-77
2023/12/10 00:39:23;;;;;;;;;;;15.20;81.90;;;;;;5055335;28;19916;-77
2023/12/10 00:41:48;;;;;;;;;;;15.50;82.10;;;;;;5055074;28;19915;-77
2023/12/10 00:44:14;;;;;;;;;;;15.10;81.90;;;;;;5055221;28;20331;-77
2023/12/10 00:46:39;;;;;;;;;;;15.00;81.80;;;;;;5055046;28;20097;-77
2023/12/10 00:49:05;;;;;;;;;;;15.20;82.10;;;;;;5055032;28;20434;-77
2023/12/10 00:51:30;;;;;;;;;;;15.10;81.70;;;;;;5055370;28;20390;-76
2023/12/10 00:53:56;;;;;;;;;;;15.10;81.80;;;;;;5055272;28;19948;-77
2023/12/10 00:56:22;;;;;;;;;;;15.10;81.80;;;;;;5054905;28;20421;-77
2023/12/10 00:58:47;;;;;;;;;;;15.10;81.90;;;;;;5055175;28;19932;-77
2023/12/10 01:01:13;;;;;;;;;;;15.10;81.50;;;;;;5054778;28;19932;-77
2023/12/10 01:03:38;;;;;;;;;;;15.10;81.70;;;;;;5054918;28;19962;-77
2023/12/10 01:06:04;;;;;;;;;;;15.00;81.60;;;;;;5054927;28;20348;-77
2023/12/10 01:08:30;;;;;;;;;;;15.00;81.40;;;;;;5054705;28;19913;-77
2023/12/10 01:10:56;;;;;;;;;;;15.10;81.40;;;;;;5054601;28;19908;-77
2023/12/10 01:13:24;;;;;;;;;;;15.00;82.00;;;;;;5054567;28;19915;-77
2023/12/10 01:15:55;;;;;;;;;;;14.80;81.20;;;;;;5054345;28;19924;-77
2023/12/10 01:18:21;;;;;;;;;;;15.00;81.20;;;;;;5054908;28;19999;-77
2023/12/10 01:20:46;;;;;;;;;;;15.00;81.50;;;;;;5054516;28;19960;-77
2023/12/10 01:23:13;;;;;;;;;;;15.00;81.50;;;;;;5054393;28;19909;-77
2023/12/10 01:25:38;;;;;;;;;;;15.00;81.50;;;;;;5054267;28;19920;-77
2023/12/10 01:28:04;;;;;;;;;;;15.00;81.70;;;;;;5054307;28;20298;-77
2023/12/10 01:30:30;;;;;;;;;;;15.00;81.70;;;;;;5054267;28;20391;-71
2023/12/10 01:32:57;;;;;;;;;;;15.00;81.60;;;;;;5054511;28;20457;-71
2023/12/10 01:35:23;;;;;;;;;;;15.00;81.50;;;;;;5054217;28;20268;-71
2023/12/10 01:37:49;;;;;;;;;;;15.00;81.70;;;;;;5054049;28;20469;-72
2023/12/10 01:40:16;;;;;;;;;;;15.00;81.60;;;;;;5054316;28;19909;-72
2023/12/10 01:42:42;;;;;;;;;;;14.90;81.10;;;;;;5053991;28;20359;-72
2023/12/10 01:45:08;;;;;;;;;;;14.80;81.60;;;;;;5053913;28;20364;-72
2023/12/10 01:47:35;;;;;;;;;;;14.90;81.80;;;;;;5054373;28;20376;-78
2023/12/10 01:50:04;;;;;;;;;;;14.90;81.40;;;;;;5054199;28;19948;-78
2023/12/10 01:52:31;;;;;;;;;;;14.90;82.00;;;;;;5054061;28;19909;-78
2023/12/10 01:54:58;;;;;;;;;;;14.90;82.40;;;;;;5053771;28;20360;-78
2023/12/10 01:57:26;;;;;;;;;;;14.90;82.20;;;;;;5053760;28;19909;-78
2023/12/10 01:59:52;;;;;;;;;;;14.90;81.60;;;;;;5053760;28;19931;-72
2023/12/10 02:02:20;;;;;;;;;;;14.90;81.60;;;;;;5053827;28;19909;-72
2023/12/10 02:04:46;;;;;;;;;;;14.90;81.70;;;;;;5053727;28;20404;-71
2023/12/10 02:07:12;;;;;;;;;;;14.90;81.70;;;;;;5053849;28;20377;-70
2023/12/10 02:09:38;;;;;;;;;;;14.90;81.50;;;;;;5053226;28;20419;-70
2023/12/10 02:12:04;;;;;;;;;;;14.30;81.00;;;;;;5053307;28;19970;-71
2023/12/10 02:14:30;;;;;;;;;;;14.90;81.30;;;;;;5053420;28;19912;-70
2023/12/10 02:16:56;;;;;;;;;;;14.80;81.60;;;;;;5054052;28;20264;-70
2023/12/10 02:19:22;;;;;;;;;;;14.90;81.50;;;;;;5053403;28;20356;-71
2023/12/10 02:21:50;;;;;;;;;;;14.90;81.50;;;;;;5053439;28;19909;-71
2023/12/10 02:24:20;;;;;;;;;;;14.80;81.80;;;;;;5053108;28;19982;-71
2023/12/10 02:26:46;;;;;;;;;;;14.90;81.80;;;;;;5053538;28;20426;-78
2023/12/10 02:29:12;;;;;;;;;;;15.00;81.30;;;;;;5053546;28;20287;-78
2023/12/10 02:31:38;;;;;;;;;;;14.90;81.10;;;;;;5053044;28;19916;-77
2023/12/10 02:34:05;;;;;;;;;;;14.70;80.90;;;;;;5053272;28;20289;-77
2023/12/10 02:36:32;;;;;;;;;;;14.80;81.20;;;;;;5052852;28;19999;-78
2023/12/10 02:38:58;;;;;;;;;;;14.80;81.00;;;;;;5052917;28;19916;-77
2023/12/10 02:41:24;;;;;;;;;;;14.80;81.00;;;;;;5052891;28;19908;-77
2023/12/10 02:43:50;;;;;;;;;;;14.70;80.50;;;;;;5053549;28;19913;-71
2023/12/10 02:46:16;;;;;;;;;;;14.80;81.00;;;;;;5053107;28;19909;-71
2023/12/10 02:48:42;;;;;;;;;;;14.80;80.80;;;;;;5053003;28;19909;-71
2023/12/10 02:51:07;;;;;;;;;;;14.70;80.70;;;;;;5052700;28;19978;-71
2023/12/10 02:53:33;;;;;;;;;;;14.70;81.00;;;;;;5052611;28;20386;-71
2023/12/10 02:55:58;;;;;;;;;;;14.80;80.50;;;;;;5052529;28;19917;-77
2023/12/10 02:58:24;;;;;;;;;;;14.70;80.60;;;;;;5052168;28;19916;-77
2023/12/10 03:00:49;;;;;;;;;;;14.70;81.00;;;;;;5052515;28;19916;-77
2023/12/10 03:03:15;;;;;;;;;;;14.70;80.60;;;;;;5052533;28;19909;-76
2023/12/10 03:05:40;;;;;;;;;;;14.70;80.80;;;;;;5052526;28;19908;-76
2023/12/10 03:08:06;;;;;;;;;;;14.70;80.80;;;;;;5052513;28;20299;-76
2023/12/10 03:10:31;;;;;;;;;;;14.70;80.90;;;;;;5052509;28;19909;-76
2023/12/10 03:12:57;;;;;;;;;;;14.70;80.70;;;;;;5053010;28;19916;-70
2023/12/10 03:15:22;;;;;;;;;;;14.60;80.60;;;;;;5052302;28;19917;-71
2023/12/10 03:17:48;;;;;;;;;;;14.60;80.40;;;;;;5052312;28;19915;-70
2023/12/10 03:20:14;;;;;;;;;;;14.70;80.90;;;;;;5052267;28;20008;-70
2023/12/10 03:22:39;;;;;;;;;;;14.70;80.60;;;;;;5052206;28;20117;-71
2023/12/10 03:25:05;;;;;;;;;;;14.70;80.70;;;;;;5052243;28;19928;-77
2023/12/10 03:27:33;;;;;;;;;;;14.60;78.90;;;;;;5051467;28;20484;-77
2023/12/10 03:29:59;;;;;;;;;;;14.80;81.20;;;;;;5052173;28;20322;-76
2023/12/10 03:32:24;;;;;;;;;;;14.60;80.60;;;;;;5052229;28;20007;-76
2023/12/10 03:34:50;;;;;;;;;;;15.10;80.80;;;;;;5052113;28;19928;-76
2023/12/10 03:37:15;;;;;;;;;;;14.70;80.50;;;;;;5052156;28;19925;-76
2023/12/10 03:39:41;;;;;;;;;;;14.60;80.40;;;;;;5052205;28;20007;-76
2023/12/10 03:42:06;;;;;;;;;;;14.60;80.70;;;;;;5052512;28;19909;-71
2023/12/10 03:44:32;;;;;;;;;;;14.40;80.40;;;;;;5052027;28;20003;-70
2023/12/10 03:47:04;;;;;;;;;;;14.60;80.50;;;;;;5051979;28;19955;-71
2023/12/10 03:49:30;;;;;;;;;;;14.60;75.50;;;;;;5052212;28;20394;-71
2023/12/10 03:51:56;;;;;;;;;;;13.00;79.70;;;;;;5051910;28;19916;-71
2023/12/10 03:54:22;;;;;;;;;;;14.60;80.60;;;;;;5052256;28;19913;-71
2023/12/10 03:56:49;;;;;;;;;;;14.60;80.10;;;;;;5052172;28;19987;-71
2023/12/10 03:59:15;;;;;;;;;;;14.50;80.20;;;;;;5051897;28;19909;-70
2023/12/10 04:01:44;;;;;;;;;;;14.50;80.00;;;;;;5051756;28;20371;-71
2023/12/10 04:04:13;;;;;;;;;;;14.60;80.90;;;;;;5051670;28;19966;-72
2023/12/10 04:06:39;;;;;;;;;;;14.60;75.60;;;;;;5051739;28;19908;-70
2023/12/10 04:09:09;;;;;;;;;;;14.50;80.20;;;;;;5054958;28;19913;-71
2023/12/10 04:11:36;;;;;;;;;;;14.50;75.50;;;;;;5055592;28;20398;-71
2023/12/10 04:14:02;;;;;;;;;;;14.60;81.00;;;;;;5055795;28;19908;-70
2023/12/10 04:16:29;;;;;;;;;;;14.50;80.80;;;;;;5055752;28;20256;-71
2023/12/10 04:18:55;;;;;;;;;;;14.50;80.80;;;;;;5055456;28;19909;-70
2023/12/10 04:21:21;;;;;;;;;;;14.50;80.40;;;;;;5055537;28;19915;-71
2023/12/10 04:23:47;;;;;;;;;;;14.50;81.00;;;;;;5055412;28;19951;-71
2023/12/10 04:26:13;;;;;;;;;;;14.50;80.50;;;;;;5055404;28;19959;-71
2023/12/10 04:28:39;;;;;;;;;;;14.50;80.80;;;;;;5055723;28;19972;-71
2023/12/10 04:31:05;;;;;;;;;;;14.40;80.10;;;;;;5055596;28;19909;-71
2023/12/10 04:33:32;;;;;;;;;;;14.50;79.60;;;;;;5055341;28;19909;-71
2023/12/10 04:35:58;;;;;;;;;;;14.40;80.50;;;;;;5055239;28;19924;-72
2023/12/10 04:38:24;;;;;;;;;;;14.50;80.60;;;;;;5056164;28;19913;-77
2023/12/10 04:40:50;;;;;;;;;;;14.50;80.60;;;;;;5055253;28;20372;-76
2023/12/10 04:43:16;;;;;;;;;;;14.40;80.20;;;;;;5055254;28;19913;-77
2023/12/10 04:45:42;;;;;;;;;;;14.40;80.30;;;;;;5055651;28;19908;-77
2023/12/10 04:48:08;;;;;;;;;;;14.50;80.00;;;;;;5054405;28;19924;-77
2023/12/10 04:50:34;;;;;;;;;;;14.50;80.60;;;;;;5054227;28;19912;-77
2023/12/10 04:52:59;;;;;;;;;;;14.50;80.40;;;;;;5055311;28;20304;-76
2023/12/10 04:55:25;;;;;;;;;;;14.40;80.50;;;;;;5055174;28;20360;-77
2023/12/10 04:57:50;;;;;;;;;;;14.20;80.00;;;;;;5055168;28;19997;-77
2023/12/10 05:00:16;;;;;;;;;;;14.50;80.40;;;;;;5055087;28;19915;-77
2023/12/10 05:02:41;;;;;;;;;;;14.40;80.30;;;;;;5054998;28;19909;-77
2023/12/10 05:05:08;;;;;;;;;;;14.40;80.20;;;;;;5054964;28;19995;-77
2023/12/10 05:07:34;;;;;;;;;;;14.40;79.40;;;;;;5055208;28;20281;-71
2023/12/10 05:10:00;;;;;;;;;;;14.50;80.50;;;;;;5054685;28;19917;-71
2023/12/10 05:12:25;;;;;;;;;;;14.40;80.20;;;;;;5054626;28;19912;-71
2023/12/10 05:14:51;;;;;;;;;;;14.50;80.70;;;;;;5054531;28;19921;-71
2023/12/10 05:17:16;;;;;;;;;;;14.40;80.60;;;;;;5054553;28;19909;-71
2023/12/10 05:19:42;;;;;;;;;;;14.40;80.40;;;;;;5053893;28;19916;-71
2023/12/10 05:22:07;;;;;;;;;;;14.50;80.40;;;;;;5054399;28;19909;-71
2023/12/10 05:24:33;;;;;;;;;;;14.30;80.20;;;;;;5054233;28;20000;-71
2023/12/10 05:26:58;;;;;;;;;;;14.40;80.60;;;;;;5054436;28;19909;-71
2023/12/10 05:29:24;;;;;;;;;;;14.30;80.50;;;;;;5054276;28;19916;-71
2023/12/10 05:31:50;;;;;;;;;;;14.40;80.30;;;;;;5054535;28;20011;-71
2023/12/10 05:34:16;;;;;;;;;;;14.40;80.60;;;;;;5054985;28;20483;-77
2023/12/10 05:36:42;;;;;;;;;;;14.50;80.50;;;;;;5054215;28;20379;-77
2023/12/10 05:39:08;;;;;;;;;;;14.40;80.70;;;;;;5054206;28;19909;-77
2023/12/10 05:41:34;;;;;;;;;;;14.40;80.70;;;;;;5054373;28;19970;-77
2023/12/10 05:44:00;;;;;;;;;;;14.40;80.80;;;;;;5054298;28;20334;-78
2023/12/10 05:46:26;;;;;;;;;;;14.50;81.20;;;;;;5053938;28;19963;-77
2023/12/10 05:48:52;;;;;;;;;;;14.40;81.00;;;;;;5054338;28;19988;-77
2023/12/10 05:51:18;;;;;;;;;;;14.40;80.90;;;;;;5054112;28;19913;-77
2023/12/10 05:53:44;;;;;;;;;;;14.50;81.20;;;;;;5053911;28;19909;-77
2023/12/10 05:56:09;;;;;;;;;;;14.40;81.00;;;;;;5053852;28;19916;-76
2023/12/10 05:58:35;;;;;;;;;;;14.50;81.00;;;;;;5054150;28;19908;-77
2023/12/10 06:01:01;;;;;;;;;;;14.50;81.20;;;;;;5053764;28;19909;-77
2023/12/10 06:03:27;;;;;;;;;;;14.40;81.00;;;;;;5053545;28;19956;-77
2023/12/10 06:05:53;;;;;;;;;;;14.40;81.00;;;;;;5053537;28;20422;-71
2023/12/10 06:08:19;;;;;;;;;;;14.40;81.10;;;;;;5053374;28;19909;-71
2023/12/10 06:10:45;;;;;;;;;;;14.40;81.30;;;;;;5053611;28;19909;-70
2023/12/10 06:13:11;;;;;;;;;;;14.40;81.20;;;;;;5053426;28;19909;-71
2023/12/10 06:15:37;;;;;;;;;;;14.50;81.20;;;;;;5053430;28;19917;-70
2023/12/10 06:18:04;;;;;;;;;;;14.50;81.20;;;;;;5053498;28;20257;-71
2023/12/10 06:20:29;;;;;;;;;;;14.60;80.90;;;;;;5053063;28;19909;-71
2023/12/10 06:22:55;;;;;;;;;;;14.40;81.20;;;;;;5053154;28;19909;-77
2023/12/10 06:25:20;;;;;;;;;;;14.50;81.30;;;;;;5053047;28;19951;-77
2023/12/10 06:27:46;;;;;;;;;;;14.50;81.00;;;;;;5053240;28;19916;-77
2023/12/10 06:30:11;;;;;;;;;;;14.50;81.10;;;;;;5053155;28;19909;-77
2023/12/10 06:32:37;;;;;;;;;;;14.50;79.80;;;;;;5051977;28;19909;-77
2023/12/10 06:35:02;;;;;;;;;;;14.50;81.40;;;;;;5052872;28;19913;-77
2023/12/10 06:37:28;;;;;;;;;;;14.50;80.90;;;;;;5053018;28;19963;-77
2023/12/10 06:39:54;;;;;;;;;;;14.50;80.90;;;;;;5053491;28;19916;-71
2023/12/10 06:42:20;;;;;;;;;;;14.60;80.90;;;;;;5052916;28;20391;-71
2023/12/10 06:44:45;;;;;;;;;;;14.50;81.10;;;;;;5052725;28;20058;-71
2023/12/10 06:47:11;;;;;;;;;;;14.50;81.10;;;;;;5052736;28;20430;-71
2023/12/10 06:49:36;;;;;;;;;;;14.60;81.20;;;;;;5052701;28;19955;-71
2023/12/10 06:52:03;;;;;;;;;;;14.60;81.00;;;;;;5052912;28;19915;-77
2023/12/10 06:54:29;;;;;;;;;;;14.60;80.20;;;;;;5053091;28;20274;-77
2023/12/10 06:56:55;;;;;;;;;;;14.60;81.20;;;;;;5052940;28;20252;-77
2023/12/10 06:59:21;;;;;;;;;;;14.70;81.30;;;;;;5052922;28;19915;-77
2023/12/10 07:01:47;;;;;;;;;;;14.60;81.20;;;;;;5052522;28;20364;-77
2023/12/10 07:04:13;;;;;;;;;;;14.50;81.00;;;;;;5052495;28;19915;-76
2023/12/10 07:06:39;;;;;;;;;;;14.60;81.70;;;;;;5052467;28;19916;-76
2023/12/10 07:09:08;;;;;;;;;;;14.60;81.30;;;;;;5053113;28;19913;-71
2023/12/10 07:11:34;;;;;;;;;;;14.60;77.30;;;;;;5052553;28;20260;-71
2023/12/10 07:14:00;;;;;;;;;;;14.70;81.20;;;;;;5052539;28;19920;-71
2023/12/10 07:16:26;;;;;;;;;;;14.60;81.30;;;;;;5052217;28;19968;-70
2023/12/10 07:18:52;;;;;;;;;;;14.60;81.60;;;;;;5052222;28;19909;-70
2023/12/10 07:21:18;;;;;;;;;;;14.60;81.30;;;;;;5052346;28;19909;-71
2023/12/10 07:23:44;;;;;;;;;;;14.60;81.30;;;;;;5052270;28;19908;-71
2023/12/10 07:26:10;;;;;;;;;;;14.60;81.30;;;;;;5051298;28;19912;-71
2023/12/10 07:28:36;;;;;;;;;;;14.70;81.40;;;;;;5052163;28;20453;-71
2023/12/10 07:31:02;;;;;;;;;;;14.60;81.30;;;;;;5052527;28;19913;-71
2023/12/10 07:33:28;;;;;;;;;;;14.70;81.00;;;;;;5052112;28;19909;-71
2023/12/10 07:35:55;;;;;;;;;;;13.20;79.90;;;;;;5052300;28;20284;-71
2023/12/10 07:38:21;;;;;;;;;;;14.60;80.90;;;;;;5052503;28;19909;-71
2023/12/10 07:40:47;;;;;;;;;;;14.70;81.40;;;;;;5052273;28;19963;-71
2023/12/10 07:43:13;;;;;;;;;;;14.60;81.30;;;;;;5053502;28;20022;-71
2023/12/10 07:45:39;;;;;;;;;;;14.70;81.00;;;;;;5056238;28;19908;-71
2023/12/10 07:48:05;;;;;;;;;;;14.60;81.10;;;;;;5056277;28;20004;-77
2023/12/10 07:50:31;;;;;;;;;;;14.70;81.50;;;;;;5056561;28;19909;-76
2023/12/10 07:52:58;;;;;;;;;;;14.60;81.30;;;;;;5056197;28;19908;-77
2023/12/10 07:55:24;;;;;;;;;;;14.70;81.10;;;;;;5055892;28;19917;-76
2023/12/10 07:57:51;;;;;;;;;;;14.90;81.20;;;;;;5054867;28;20382;-77
2023/12/10 08:00:16;;;;;;;;;;;14.70;81.00;;;;;;5056138;28;19964;-77
2023/12/10 08:02:42;;;;;;;;;;;15.00;81.00;;;;;;5054539;28;19947;-76
2023/12/10 08:05:08;;;;;;;;;;;14.60;80.60;;;;;;5055034;28;19913;-75
2023/12/10 08:07:34;;;;;;;;;;;14.70;80.80;;;;;;5054953;28;19916;-75
2023/12/10 08:10:00;;;;;;;;;;;14.70;81.10;;;;;;5054650;28;19971;-75
2023/12/10 08:12:26;;;;;;;;;;;14.70;81.00;;;;;;5055157;28;19913;-75
2023/12/10 08:14:52;;;;;;;;;;;14.70;81.30;;;;;;5055834;28;19974;-76
2023/12/10 08:17:19;;;;;;;;;;;14.60;80.80;;;;;;5054912;28;19912;-72
2023/12/10 08:19:45;;;;;;;;;;;14.70;81.20;;;;;;5054589;28;20056;-71
2023/12/10 08:22:13;;;;;;;;;;;14.80;80.90;;;;;;5054356;28;19924;-72
2023/12/10 08:24:39;;;;;;;;;;;15.00;81.10;;;;;;5054432;28;19924;-71
2023/12/10 08:27:05;;;;;;;;;;;14.70;80.80;;;;;;5055622;28;19913;-74
2023/12/10 08:29:31;;;;;;;;;;;14.60;80.80;;;;;;5055733;28;19999;-74
2023/12/10 08:31:57;;;;;;;;;;;14.80;80.90;;;;;;5055481;28;19996;-73
2023/12/10 08:34:22;;;;;;;;;;;14.70;80.20;;;;;;5056085;28;20356;-71
2023/12/10 08:36:48;;;;;;;;;;;14.70;80.90;;;;;;5055437;28;19921;-71
2023/12/10 08:39:13;;;;;;;;;;;14.70;80.80;;;;;;5055437;28;20271;-70
2023/12/10 08:41:39;;;;;;;;;;;14.60;80.50;;;;;;5055470;28;20414;-70
2023/12/10 08:44:04;;;;;;;;;;;14.70;81.00;;;;;;5055405;28;20000;-71
2023/12/10 08:46:30;;;;;;;;;;;14.70;80.80;;;;;;5055415;28;19962;-70
2023/12/10 08:48:56;;;;;;;;;;;14.60;80.60;;;;;;5055480;28;20344;-71
2023/12/10 08:51:22;;;;;;;;;;;15.00;80.90;;;;;;5055032;28;19908;-71
2023/12/10 08:53:47;;;;;;;;;;;14.40;80.50;;;;;;5054844;28;19909;-72
2023/12/10 08:56:13;;;;;;;;;;;14.60;80.80;;;;;;5053848;28;19917;-72
2023/12/10 08:58:39;;;;;;;;;;;14.70;80.70;;;;;;5054886;28;19909;-71
2023/12/10 09:01:06;;;;;;;;;;;14.70;80.60;;;;;;5054778;28;19909;-71
2023/12/10 09:03:32;;;;;;;;;;;14.60;80.60;;;;;;5054832;28;19908;-77
2023/12/10 09:05:58;;;;;;;;;;;14.60;81.50;;;;;;5055026;28;19925;-76
2023/12/10 09:08:26;;;;;;;;;;;14.70;80.50;;;;;;5054925;28;19909;-76
2023/12/10 09:10:54;;;;;;;;;;;14.60;80.80;;;;;;5054677;28;19913;-76
2023/12/10 09:13:20;;;;;;;;;;;14.70;75.80;;;;;;5054759;28;19912;-77
2023/12/10 09:15:46;;;;;;;;;;;14.70;80.90;;;;;;5054611;28;19924;-77
2023/12/10 09:18:11;;;;;;;;;;;14.60;80.50;;;;;;5054526;28;19909;-78
2023/12/10 09:20:37;;;;;;;;;;;14.70;80.40;;;;;;5055124;28;19931;-72
2023/12/10 09:23:02;;;;;;;;;;;14.60;81.00;;;;;;5054379;28;20416;-72
2023/12/10 09:25:28;;;;;;;;;;;14.60;81.00;;;;;;5054300;28;20359;-72
2023/12/10 09:27:53;;;;;;;;;;;14.70;80.60;;;;;;5054312;28;20271;-72
2023/12/10 09:30:19;;;;;;;;;;;14.70;80.90;;;;;;5054322;28;19916;-72
2023/12/10 09:32:44;;;;;;;;;;;14.60;80.80;;;;;;5054288;28;19920;-77
2023/12/10 09:35:10;;;;;;;;;;;14.70;81.00;;;;;;5054256;28;19916;-78
2023/12/10 09:37:37;;;;;;;;;;;15.10;80.80;;;;;;5054208;28;19986;-77
2023/12/10 09:40:05;;;;;;;;;;;14.60;80.70;;;;;;5054248;28;19909;-77
2023/12/10 09:42:31;;;;;;;;;;;14.70;80.20;;;;;;5054132;28;19940;-78
2023/12/10 09:44:56;;;;;;;;;;;14.60;80.80;;;;;;5054013;28;19955;-78
2023/12/10 09:47:23;;;;;;;;;;;14.70;80.90;;;;;;5054007;28;19909;-77
2023/12/10 09:49:50;;;;;;;;;;;14.60;80.80;;;;;;5054510;28;19909;-76
2023/12/10 09:52:15;;;;;;;;;;;14.60;80.70;;;;;;5054230;28;20019;-77
2023/12/10 09:54:41;;;;;;;;;;;14.70;81.00;;;;;;5053845;28;19944;-77
2023/12/10 09:57:07;;;;;;;;;;;14.80;80.90;;;;;;5058763;28;19920;-77
2023/12/10 09:59:35;;;;;;;;;;;14.80;81.00;;;;;;5053996;28;19916;-77
2023/12/10 10:02:03;;;;;;;;;;;14.70;80.70;;;;;;5053702;28;20050;-72
2023/12/10 10:04:29;;;;;;;;;;;14.80;81.60;;;;;;5053527;28;20394;-72
2023/12/10 10:06:55;;;;;;;;;;;14.80;81.00;;;;;;5053331;28;19919;-72
2023/12/10 10:09:21;;;;;;;;;;;14.80;81.10;;;;;;5053531;28;19909;-71
2023/12/10 10:11:46;;;;;;;;;;;14.90;81.10;;;;;;5053577;28;19909;-71
2023/12/10 10:14:12;;;;;;;;;;;14.80;81.70;;;;;;5053537;28;19917;-72
2023/12/10 10:16:37;;;;;;;;;;;12.90;79.70;;;;;;5053402;28;20011;-71
2023/12/10 10:19:03;;;;;;;;;;;14.90;81.30;;;;;;5053564;28;19936;-71
2023/12/10 10:21:29;;;;;;;;;;;14.80;81.20;;;;;;5053392;28;20375;-72
2023/12/10 10:23:55;;;;;;;;;;;15.00;81.50;;;;;;5051981;28;19920;-72
2023/12/10 10:26:20;;;;;;;;;;;15.00;81.50;;;;;;5053192;28;19908;-72
2023/12/10 10:28:46;;;;;;;;;;;14.90;81.40;;;;;;5053106;28;19944;-72
2023/12/10 10:31:11;;;;;;;;;;;15.00;81.10;;;;;;5053128;28;19952;-72
2023/12/10 10:33:37;;;;;;;;;;;15.10;81.50;;;;;;5052879;28;19959;-71
2023/12/10 10:36:03;;;;;;;;;;;15.10;81.30;;;;;;5053505;28;19943;-72
2023/12/10 10:38:29;;;;;;;;;;;15.20;80.10;;;;;;5053163;28;19909;-72
2023/12/10 10:41:01;;;;;;;;;;;15.20;81.40;;;;;;5053005;28;20276;-72
2023/12/10 10:43:26;;;;;;;;;;;15.30;76.10;;;;;;5052984;28;19909;-73
2023/12/10 10:45:52;;;;;;;;;;;15.30;81.20;;;;;;5053142;28;20407;-72
2023/12/10 10:48:18;;;;;;;;;;;15.30;80.90;;;;;;5052951;28;20422;-72
2023/12/10 10:50:44;;;;;;;;;;;15.50;81.00;;;;;;5052951;28;19935;-72
2023/12/10 10:53:10;;;;;;;;;;;15.50;80.60;;;;;;5052902;28;19909;-73
2023/12/10 10:55:36;;;;;;;;;;;15.60;81.50;;;;;;5052746;28;19917;-73
2023/12/10 10:58:20;;;;;;;;;;;15.60;81.30;;;;;;5052817;28;19943;-74
2023/12/10 11:00:45;;;;;;;;;;;15.60;76.00;;;;;;5052713;28;19913;-73
2023/12/10 11:03:14;;;;;;;;;;;15.60;80.90;;;;;;5052664;28;19955;-72
2023/12/10 11:05:40;;;;;;;;;;;15.70;81.50;;;;;;5053058;28;20279;-72
2023/12/10 11:08:06;;;;;;;;;;;15.80;80.80;;;;;;5052600;28;19909;-72
2023/12/10 11:10:32;;;;;;;;;;;15.80;81.00;;;;;;5052442;28;19909;-72
2023/12/10 11:12:59;;;;;;;;;;;15.80;81.20;;;;;;5051262;28;20417;-72
2023/12/10 11:15:26;;;;;;;;;;;15.70;80.80;;;;;;5052442;28;20264;-72
2023/12/10 11:17:54;;;;;;;;;;;15.90;81.50;;;;;;5051933;28;20401;-72
2023/12/10 11:20:30;;;;;;;;;;;15.90;76.20;;;;;;5052567;28;19920;-72
2023/12/10 11:22:56;;;;;;;;;;;15.90;76.00;;;;;;5052479;28;19997;-73
2023/12/10 11:25:21;;;;;;;;;;;16.00;81.20;;;;;;5052065;28;19956;-72
2023/12/10 11:27:47;;;;;;;;;;;16.20;81.00;;;;;;5052650;28;20098;-72
2023/12/10 11:30:13;;;;;;;;;;;16.10;80.80;;;;;;5052418;28;19909;-72
2023/12/10 11:32:38;;;;;;;;;;;16.20;80.10;;;;;;5052301;28;20274;-72
2023/12/10 11:35:04;;;;;;;;;;;16.30;80.80;;;;;;5052399;28;19909;-78
2023/12/10 11:37:29;;;;;;;;;;;16.40;80.10;;;;;;5052514;28;19963;-79
2023/12/10 11:39:55;;;;;;;;;;;16.30;80.60;;;;;;5052119;28;19916;-78
2023/12/10 11:42:20;;;;;;;;;;;16.30;80.90;;;;;;5052223;28;19909;-78
2023/12/10 11:44:48;;;;;;;;;;;16.20;80.80;;;;;;5052637;28;19909;-75
2023/12/10 11:47:14;;;;;;;;;;;16.30;81.00;;;;;;5052724;28;19916;-78
2023/12/10 11:49:40;;;;;;;;;;;16.30;81.30;;;;;;5052633;28;19963;-77
2023/12/10 11:52:06;;;;;;;;;;;16.30;81.30;;;;;;5052279;28;19942;-75
2023/12/10 11:54:32;;;;;;;;;;;16.20;81.40;;;;;;5052201;28;20367;-73
2023/12/10 11:56:58;;;;;;;;;;;16.20;81.50;;;;;;5051972;28;20363;-72
2023/12/10 11:59:25;;;;;;;;;;;16.40;81.60;;;;;;5052435;28;19909;-72
2023/12/10 12:01:51;;;;;;;;;;;16.20;81.70;;;;;;5052189;28;19913;-71
2023/12/10 12:04:17;;;;;;;;;;;16.10;81.80;;;;;;5052296;28;19909;-72
2023/12/10 12:06:43;;;;;;;;;;;16.30;81.80;;;;;;5052028;28;20359;-72
2023/12/10 12:09:13;;;;;;;;;;;16.10;82.00;;;;;;5052122;28;19909;-72
2023/12/10 12:11:39;;;;;;;;;;;16.30;82.50;;;;;;5050810;28;20394;-76
2023/12/10 12:14:05;;;;;;;;;;;16.30;82.20;;;;;;5050806;28;20002;-73
2023/12/10 12:16:30;;;;;;;;;;;16.20;82.20;;;;;;5051902;28;19927;-75
2023/12/10 12:19:00;;;;;;;;;;;16.10;82.40;;;;;;5052280;28;19999;-77
2023/12/10 12:21:26;;;;;;;;;;;16.10;82.40;;;;;;5052267;28;19929;-78
2023/12/10 12:23:52;;;;;;;;;;;16.20;82.40;;;;;;5052076;28;19908;-75
2023/12/10 12:26:18;;;;;;;;;;;16.10;82.20;;;;;;5052265;28;20286;-73
2023/12/10 12:28:45;;;;;;;;;;;16.10;82.20;;;;;;5052723;28;19955;-76
2023/12/10 12:31:11;;;;;;;;;;;16.10;82.40;;;;;;5056158;28;19913;-71
2023/12/10 12:33:37;;;;;;;;;;;16.10;82.20;;;;;;5055739;28;19915;-71
2023/12/10 12:36:03;;;;;;;;;;;16.40;82.60;;;;;;5055225;28;20328;-69
2023/12/10 12:38:28;;;;;;;;;;;16.40;81.50;;;;;;5055364;28;19909;-70
2023/12/10 12:40:54;;;;;;;;;;;16.20;82.50;;;;;;5055281;28;19970;-70
2023/12/10 12:43:20;;;;;;;;;;;16.20;82.20;;;;;;5055617;28;19912;-72
2023/12/10 12:45:46;;;;;;;;;;;16.20;82.80;;;;;;5055331;28;20383;-70
2023/12/10 12:48:12;;;;;;;;;;;16.20;82.70;;;;;;5056027;28;20046;-69
2023/12/10 12:50:37;;;;;;;;;;;16.30;82.50;;;;;;5055174;28;19909;-71
2023/12/10 12:53:03;;;;;;;;;;;16.20;83.00;;;;;;5055392;28;19913;-71
2023/12/10 12:55:29;;;;;;;;;;;16.30;82.70;;;;;;5055052;28;19917;-69
2023/12/10 12:57:56;;;;;;;;;;;16.20;82.60;;;;;;5055332;28;19915;-75
2023/12/10 13:00:22;;;;;;;;;;;16.30;82.90;;;;;;5055219;28;19919;-69
2023/12/10 13:02:48;;;;;;;;;;;16.30;82.30;;;;;;5054893;28;19999;-69
2023/12/10 13:05:14;;;;;;;;;;;16.50;82.70;;;;;;5055249;28;19971;-69
2023/12/10 13:07:40;;;;;;;;;;;16.30;82.60;;;;;;5055175;28;19924;-69
2023/12/10 13:10:09;;;;;;;;;;;16.20;82.50;;;;;;5055100;28;20327;-69
2023/12/10 13:12:35;;;;;;;;;;;16.40;81.10;;;;;;5054851;28;19909;-69
2023/12/10 13:15:01;;;;;;;;;;;16.50;82.70;;;;;;5054560;28;19909;-69
2023/12/10 13:17:27;;;;;;;;;;;16.20;82.00;;;;;;5055093;28;20326;-76
2023/12/10 13:19:54;;;;;;;;;;;16.40;82.40;;;;;;5054790;28;20419;-77
2023/12/10 13:22:20;;;;;;;;;;;16.20;82.40;;;;;;5054732;28;20360;-76
2023/12/10 13:24:46;;;;;;;;;;;16.40;82.60;;;;;;5054551;28;19921;-76
2023/12/10 13:27:12;;;;;;;;;;;16.40;82.50;;;;;;5054434;28;20467;-76
2023/12/10 13:29:38;;;;;;;;;;;16.30;82.60;;;;;;5054955;28;19912;-77
2023/12/10 13:32:04;;;;;;;;;;;16.40;82.10;;;;;;5054581;28;19920;-77
2023/12/10 13:34:30;;;;;;;;;;;16.30;81.60;;;;;;5054437;28;19912;-76
2023/12/10 13:36:56;;;;;;;;;;;16.40;82.40;;;;;;5054209;28;19917;-69
2023/12/10 13:39:21;;;;;;;;;;;16.40;82.30;;;;;;5054191;28;19909;-69
2023/12/10 13:41:47;;;;;;;;;;;16.30;81.90;;;;;;5053550;28;19912;-69
2023/12/10 13:44:12;;;;;;;;;;;16.40;82.30;;;;;;5054043;28;20360;-69
2023/12/10 13:46:38;;;;;;;;;;;16.40;82.30;;;;;;5054145;28;19913;-70
2023/12/10 13:49:04;;;;;;;;;;;16.40;82.20;;;;;;5053998;28;19955;-69
2023/12/10 13:51:30;;;;;;;;;;;16.40;82.00;;;;;;5053936;28;20421;-69
2023/12/10 13:53:57;;;;;;;;;;;16.40;82.40;;;;;;5054414;28;19909;-69
2023/12/10 13:56:23;;;;;;;;;;;16.40;82.20;;;;;;5053818;28;20363;-68
2023/12/10 13:58:49;;;;;;;;;;;16.40;82.30;;;;;;5053799;28;19924;-69
2023/12/10 14:01:15;;;;;;;;;;;16.40;81.80;;;;;;5053949;28;19913;-69
2023/12/10 14:03:42;;;;;;;;;;;16.30;81.60;;;;;;5054086;28;19912;-76
2023/12/10 14:06:08;;;;;;;;;;;16.40;82.10;;;;;;5053909;28;19908;-76
2023/12/10 14:08:34;;;;;;;;;;;16.40;82.00;;;;;;5053988;28;19915;-76